sensor_id;sensor_type;location;lat;lon;timestamp;pressure;altitude;pressure_sealevel;temperature;humidity
71770;BME280;66386;52.122;5.420;2023-09-19T00:00:21;100783.31;;;13.95;100.00
71770;BME280;66386;52.122;5.420;2023-09-19T00:02:52;100788.63;;;13.92;100.00
71770;BME280;66386;52.122;5.420;2023-09-19T00:05:20;100788.72;;;13.91;100.00
71770;BME280;66386;52.122;5.420;2023-09-19T00:07:51;100790.47;;;13.90;100.00
71770;BME280;66386;52.122;5.420;2023-09-19T00:10:21;100799.28;;;13.86;100.00
71770;BME280;66386;52.122;5.420;2023-09-19T00:12:54;100799.38;;;13.85;100.00
71770;BME280;66386;52.122;5.420;2023-09-19T00:15:26;100808.94;;;13.83;100.00
71770;BME280;66386;52.122;5.420;2023-09-19T00:17:55;100808.94;;;13.83;100.00
71770;BME280;66386;52.122;5.420;2023-09-19T00:20:22;100814.94;;;13.83;100.00
71770;BME280;66386;52.122;5.420;2023-09-19T00:22:50;100809.72;;;13.85;100.00
71770;BME280;66386;52.122;5.420;2023-09-19T00:25:20;100803.69;;;13.84;100.00
71770;BME280;66386;52.122;5.420;2023-09-19T00:27:47;100801.94;;;13.85;100.00
71770;BME280;66386;52.122;5.420;2023-09-19T00:30:16;100808.94;;;13.83;100.00
71770;BME280;66386;52.122;5.420;2023-09-19T00:32:47;100811.66;;;13.79;100.00
71770;BME280;66386;52.122;5.420;2023-09-19T00:35:14;100812.53;;;13.80;100.00
71770;BME280;66386;52.122;5.420;2023-09-19T00:37:43;100816.00;;;13.79;100.00
71770;BME280;66386;52.122;5.420;2023-09-19T00:40:10;100813.44;;;13.79;100.00
71770;BME280;66386;52.122;5.420;2023-09-19T00:42:45;100816.84;;;13.79;100.00
71770;BME280;66386;52.122;5.420;2023-09-19T00:45:14;100816.75;;;13.81;100.00
71770;BME280;66386;52.122;5.420;2023-09-19T00:47:42;100816.59;;;13.84;100.00
71770;BME280;66386;52.122;5.420;2023-09-19T00:50:11;100822.63;;;13.85;100.00
71770;BME280;66386;52.122;5.420;2023-09-19T00:52:42;100819.13;;;13.86;100.00
71770;BME280;66386;52.122;5.420;2023-09-19T00:55:10;100819.13;;;13.86;100.00
71770;BME280;66386;52.122;5.420;2023-09-19T00:57:38;100821.63;;;13.87;100.00
71770;BME280;66386;52.122;5.420;2023-09-19T01:00:09;100830.22;;;13.88;100.00
71770;BME280;66386;52.122;5.420;2023-09-19T01:02:42;100827.63;;;13.88;100.00
71770;BME280;66386;52.122;5.420;2023-09-19T01:05:10;100835.31;;;13.89;100.00
71770;BME280;66386;52.122;5.420;2023-09-19T01:07:37;100836.97;;;13.90;100.00
71770;BME280;66386;52.122;5.420;2023-09-19T01:10:12;100842.00;;;13.93;100.00
71770;BME280;66386;52.122;5.420;2023-09-19T01:15:37;100838.50;;;13.94;100.00
71770;BME280;66386;52.122;5.420;2023-09-19T01:20:48;100836.97;;;13.90;100.00
71770;BME280;66386;52.122;5.420;2023-09-19T01:23:42;100837.97;;;13.88;100.00
71770;BME280;66386;52.122;5.420;2023-09-19T01:26:30;100834.69;;;13.84;100.00
71770;BME280;66386;52.122;5.420;2023-09-19T01:31:47;100836.53;;;13.82;100.00
71770;BME280;66386;52.122;5.420;2023-09-19T01:34:15;100834.75;;;13.83;100.00
71770;BME280;66386;52.122;5.420;2023-09-19T01:36:42;100841.53;;;13.85;100.00
71770;BME280;66386;52.122;5.420;2023-09-19T01:39:11;100836.44;;;13.84;100.00
71770;BME280;66386;52.122;5.420;2023-09-19T01:44:15;100839.94;;;13.83;100.00
71770;BME280;66386;52.122;5.420;2023-09-19T01:46:44;100844.34;;;13.81;100.00
71770;BME280;66386;52.122;5.420;2023-09-19T01:49:50;100844.50;;;13.77;100.00
71770;BME280;66386;52.122;5.420;2023-09-19T01:52:25;100846.28;;;13.77;100.00
71770;BME280;66386;52.122;5.420;2023-09-19T01:55:02;100848.00;;;13.76;100.00
71770;BME280;66386;52.122;5.420;2023-09-19T01:57:40;100853.09;;;13.78;100.00
71770;BME280;66386;52.122;5.420;2023-09-19T02:00:11;100848.91;;;13.75;100.00
71770;BME280;66386;52.122;5.420;2023-09-19T02:02:42;100848.00;;;13.76;100.00
71770;BME280;66386;52.122;5.420;2023-09-19T02:05:11;100852.50;;;13.73;100.00
71770;BME280;66386;52.122;5.420;2023-09-19T02:07:39;100850.06;;;13.70;100.00
71770;BME280;66386;52.122;5.420;2023-09-19T02:10:07;100848.47;;;13.67;100.00
71770;BME280;66386;52.122;5.420;2023-09-19T02:12:36;100858.72;;;13.69;100.00
71770;BME280;66386;52.122;5.420;2023-09-19T02:15:03;100851.88;;;13.68;100.00
71770;BME280;66386;52.122;5.420;2023-09-19T02:17:31;100847.69;;;13.65;100.00
71770;BME280;66386;52.122;5.420;2023-09-19T02:19:57;100841.78;;;13.63;100.00
71770;BME280;66386;52.122;5.420;2023-09-19T02:22:25;100846.19;;;13.61;100.00
71770;BME280;66386;52.122;5.420;2023-09-19T02:24:51;100845.41;;;13.59;100.00
71770;BME280;66386;52.122;5.420;2023-09-19T02:27:19;100849.91;;;13.55;100.00
71770;BME280;66386;52.122;5.420;2023-09-19T02:29:46;100849.91;;;13.55;100.00
71770;BME280;66386;52.122;5.420;2023-09-19T02:32:12;100861.06;;;13.56;100.00
71770;BME280;66386;52.122;5.420;2023-09-19T02:34:39;100858.47;;;13.56;100.00
71770;BME280;66386;52.122;5.420;2023-09-19T02:37:06;100863.66;;;13.56;100.00
71770;BME280;66386;52.122;5.420;2023-09-19T02:39:32;100862.81;;;13.55;100.00
71770;BME280;66386;52.122;5.420;2023-09-19T02:41:59;100862.91;;;13.54;100.00
71770;BME280;66386;52.122;5.420;2023-09-19T02:44:25;100868.28;;;13.49;100.00
71770;BME280;66386;52.122;5.420;2023-09-19T02:46:52;100860.75;;;13.44;100.00
71770;BME280;66386;52.122;5.420;2023-09-19T02:49:19;100854.22;;;13.37;100.00
71770;BME280;66386;52.122;5.420;2023-09-19T02:51:45;100863.00;;;13.33;100.00
71770;BME280;66386;52.122;5.420;2023-09-19T02:54:14;100858.03;;;13.28;100.00
71770;BME280;66386;52.122;5.420;2023-09-19T02:56:42;100860.00;;;13.23;100.00
71770;BME280;66386;52.122;5.420;2023-09-19T02:59:08;100856.81;;;13.18;100.00
71770;BME280;66386;52.122;5.420;2023-09-19T03:01:36;100866.44;;;13.15;100.00
71770;BME280;66386;52.122;5.420;2023-09-19T03:04:06;100861.44;;;13.12;100.00
71770;BME280;66386;52.122;5.420;2023-09-19T03:06:33;100868.47;;;13.08;100.00
71770;BME280;66386;52.122;5.420;2023-09-19T03:08:59;100867.88;;;13.03;100.00
71770;BME280;66386;52.122;5.420;2023-09-19T03:11:26;100860.34;;;12.98;100.00
71770;BME280;66386;52.122;5.420;2023-09-19T03:13:53;100857.94;;;12.93;100.00
71770;BME280;66386;52.122;5.420;2023-09-19T03:16:19;100853.88;;;12.89;100.00
71770;BME280;66386;52.122;5.420;2023-09-19T03:18:48;100862.66;;;12.85;100.00
71770;BME280;66386;52.122;5.420;2023-09-19T03:21:16;100862.94;;;12.79;100.00
71770;BME280;66386;52.122;5.420;2023-09-19T03:23:43;100866.56;;;12.75;100.00
71770;BME280;66386;52.122;5.420;2023-09-19T03:26:13;100865.91;;;12.70;100.00
71770;BME280;66386;52.122;5.420;2023-09-19T03:28:43;100867.81;;;12.66;100.00
71770;BME280;66386;52.122;5.420;2023-09-19T03:31:10;100863.63;;;12.64;100.00
71770;BME280;66386;52.122;5.420;2023-09-19T03:33:37;100862.94;;;12.60;100.00
71770;BME280;66386;52.122;5.420;2023-09-19T03:36:04;100865.63;;;12.57;100.00
71770;BME280;66386;52.122;5.420;2023-09-19T03:38:32;100870.09;;;12.53;100.00
71770;BME280;66386;52.122;5.420;2023-09-19T03:41:00;100867.66;;;12.50;100.00
71770;BME280;66386;52.122;5.420;2023-09-19T03:43:27;100860.97;;;12.46;100.00
71770;BME280;66386;52.122;5.420;2023-09-19T03:45:54;100856.09;;;12.40;100.00
71770;BME280;66386;52.122;5.420;2023-09-19T03:48:23;100851.06;;;12.37;100.00
71770;BME280;66386;52.122;5.420;2023-09-19T03:50:50;100844.38;;;12.33;100.00
71770;BME280;66386;52.122;5.420;2023-09-19T03:53:17;100855.66;;;12.30;100.00
71770;BME280;66386;52.122;5.420;2023-09-19T03:55:45;100857.53;;;12.27;100.00
71770;BME280;66386;52.122;5.420;2023-09-19T03:58:12;100857.63;;;12.23;99.95
71770;BME280;66386;52.122;5.420;2023-09-19T04:00:39;100868.09;;;12.20;99.73
71770;BME280;66386;52.122;5.420;2023-09-19T04:03:07;100868.16;;;12.19;99.64
71770;BME280;66386;52.122;5.420;2023-09-19T04:05:35;100877.63;;;12.18;99.60
71770;BME280;66386;52.122;5.420;2023-09-19T04:08:01;100878.72;;;12.13;99.40
71770;BME280;66386;52.122;5.420;2023-09-19T04:10:28;100883.94;;;12.11;99.10
71770;BME280;66386;52.122;5.420;2023-09-19T04:12:56;100888.34;;;12.09;99.00
71770;BME280;66386;52.122;5.420;2023-09-19T04:15:23;100896.16;;;12.06;98.93
71770;BME280;66386;52.122;5.420;2023-09-19T04:17:50;100895.41;;;12.04;98.89
71770;BME280;66386;52.122;5.420;2023-09-19T04:20:18;100892.91;;;12.02;98.91
71770;BME280;66386;52.122;5.420;2023-09-19T04:22:51;100894.72;;;12.00;98.80
71770;BME280;66386;52.122;5.420;2023-09-19T04:25:18;100897.34;;;11.99;98.77
71770;BME280;66386;52.122;5.420;2023-09-19T04:27:45;100910.31;;;11.97;98.67
71770;BME280;66386;52.122;5.420;2023-09-19T04:30:12;100917.19;;;11.97;98.88
71770;BME280;66386;52.122;5.420;2023-09-19T04:32:39;100920.59;;;11.97;98.90
71770;BME280;66386;52.122;5.420;2023-09-19T04:35:09;100913.84;;;11.95;98.69
71770;BME280;66386;52.122;5.420;2023-09-19T04:37:40;100915.66;;;11.91;98.67
71770;BME280;66386;52.122;5.420;2023-09-19T04:40:09;100928.53;;;11.91;98.66
71770;BME280;66386;52.122;5.420;2023-09-19T04:42:44;100936.25;;;11.91;98.51
71770;BME280;66386;52.122;5.420;2023-09-19T04:45:11;100941.34;;;11.93;98.28
71770;BME280;66386;52.122;5.420;2023-09-19T04:47:38;100931.94;;;11.93;98.44
71770;BME280;66386;52.122;5.420;2023-09-19T04:50:09;100935.34;;;11.94;98.38
71770;BME280;66386;52.122;5.420;2023-09-19T04:52:43;100934.53;;;11.92;98.33
71770;BME280;66386;52.122;5.420;2023-09-19T04:55:12;100932.84;;;11.91;98.30
71770;BME280;66386;52.122;5.420;2023-09-19T04:57:44;100920.88;;;11.90;98.30
71770;BME280;66386;52.122;5.420;2023-09-19T05:00:19;100921.78;;;11.88;98.39
71770;BME280;66386;52.122;5.420;2023-09-19T05:02:51;100916.69;;;11.87;98.39
71770;BME280;66386;52.122;5.420;2023-09-19T05:05:23;100933.81;;;11.88;98.17
71770;BME280;66386;52.122;5.420;2023-09-19T05:07:52;100930.34;;;11.89;98.15
71770;BME280;66386;52.122;5.420;2023-09-19T05:10:21;100938.13;;;11.87;98.02
71770;BME280;66386;52.122;5.420;2023-09-19T05:12:48;100929.56;;;11.87;97.89
71770;BME280;66386;52.122;5.420;2023-09-19T05:15:17;100928.72;;;11.86;97.80
71770;BME280;66386;52.122;5.420;2023-09-19T05:17:48;100933.81;;;11.88;97.88
71770;BME280;66386;52.122;5.420;2023-09-19T05:20:21;100936.38;;;11.88;98.04
71770;BME280;66386;52.122;5.420;2023-09-19T05:23:00;100938.97;;;11.88;98.16
71770;BME280;66386;52.122;5.420;2023-09-19T05:25:31;100939.81;;;11.88;98.19
71770;BME280;66386;52.122;5.420;2023-09-19T05:27:59;100950.16;;;11.87;98.21
71770;BME280;66386;52.122;5.420;2023-09-19T05:30:26;100939.03;;;11.86;98.49
71770;BME280;66386;52.122;5.420;2023-09-19T05:32:55;100938.13;;;11.87;98.73
71770;BME280;66386;52.122;5.420;2023-09-19T05:35:23;100938.97;;;11.88;98.57
71770;BME280;66386;52.122;5.420;2023-09-19T05:37:51;100938.06;;;11.89;98.60
71770;BME280;66386;52.122;5.420;2023-09-19T05:40:18;100925.97;;;11.91;98.81
71770;BME280;66386;52.122;5.420;2023-09-19T05:42:46;100922.31;;;11.97;98.71
71770;BME280;66386;52.122;5.420;2023-09-19T05:45:13;100927.34;;;12.00;98.66
71770;BME280;66386;52.122;5.420;2023-09-19T05:47:40;100923.81;;;12.02;98.80
71770;BME280;66386;52.122;5.420;2023-09-19T05:50:12;100931.41;;;12.05;98.71
71770;BME280;66386;52.122;5.420;2023-09-19T05:52:39;100937.34;;;12.08;98.62
71770;BME280;66386;52.122;5.420;2023-09-19T05:55:05;100932.97;;;12.10;98.55
71770;BME280;66386;52.122;5.420;2023-09-19T05:57:34;100944.75;;;12.15;98.63
71770;BME280;66386;52.122;5.420;2023-09-19T06:00:01;100946.25;;;12.21;98.87
71770;BME280;66386;52.122;5.420;2023-09-19T06:02:28;100944.34;;;12.25;98.92
71770;BME280;66386;52.122;5.420;2023-09-19T06:04:56;100946.75;;;12.29;99.03
71770;BME280;66386;52.122;5.420;2023-09-19T06:07:23;100944.09;;;12.31;98.64
71770;BME280;66386;52.122;5.420;2023-09-19T06:09:52;100950.03;;;12.33;98.34
71770;BME280;66386;52.122;5.420;2023-09-19T06:12:22;100966.25;;;12.35;98.40
71770;BME280;66386;52.122;5.420;2023-09-19T06:14:49;100960.97;;;12.38;98.13
71770;BME280;66386;52.122;5.420;2023-09-19T06:17:15;100973.78;;;12.39;98.20
71770;BME280;66386;52.122;5.420;2023-09-19T06:19:43;100967.63;;;12.44;98.04
71770;BME280;66386;52.122;5.420;2023-09-19T06:22:15;100965.75;;;12.47;98.05
71770;BME280;66386;52.122;5.420;2023-09-19T06:24:45;100962.97;;;12.52;97.93
71770;BME280;66386;52.122;5.420;2023-09-19T06:27:13;100969.75;;;12.54;97.73
71770;BME280;66386;52.122;5.420;2023-09-19T06:29:40;100964.38;;;12.59;97.55
71770;BME280;66386;52.122;5.420;2023-09-19T06:32:08;100970.16;;;12.64;97.17
71770;BME280;66386;52.122;5.420;2023-09-19T06:34:36;100969.06;;;12.70;97.08
71770;BME280;66386;52.122;5.420;2023-09-19T06:37:02;100961.06;;;12.76;97.01
71770;BME280;66386;52.122;5.420;2023-09-19T06:39:29;100960.94;;;12.79;96.87
71770;BME280;66386;52.122;5.420;2023-09-19T06:41:57;100964.13;;;12.84;96.79
71770;BME280;66386;52.122;5.420;2023-09-19T06:44:24;100960.47;;;12.90;96.86
71770;BME280;66386;52.122;5.420;2023-09-19T06:46:51;100956.78;;;12.96;96.96
71770;BME280;66386;52.122;5.420;2023-09-19T06:49:18;100959.97;;;13.01;96.98
71770;BME280;66386;52.122;5.420;2023-09-19T06:51:44;100960.53;;;13.07;96.80
71770;BME280;66386;52.122;5.420;2023-09-19T06:54:11;100957.66;;;13.14;96.98
71770;BME280;66386;52.122;5.420;2023-09-19T06:56:37;100950.56;;;13.19;96.59
71770;BME280;66386;52.122;5.420;2023-09-19T06:59:04;100958.03;;;13.25;96.69
71770;BME280;66386;52.122;5.420;2023-09-19T07:01:33;100962.00;;;13.32;96.44
71770;BME280;66386;52.122;5.420;2023-09-19T07:04:00;100948.00;;;13.38;96.40
71770;BME280;66386;52.122;5.420;2023-09-19T07:06:27;100953.63;;;13.46;96.27
71770;BME280;66386;52.122;5.420;2023-09-19T07:08:54;100962.69;;;13.55;96.06
71770;BME280;66386;52.122;5.420;2023-09-19T07:11:22;100958.75;;;13.65;96.12
71770;BME280;66386;52.122;5.420;2023-09-19T07:13:48;100957.28;;;13.78;95.87
71770;BME280;66386;52.122;5.420;2023-09-19T07:16:15;100958.56;;;13.87;95.56
71770;BME280;66386;52.122;5.420;2023-09-19T07:18:54;100965.78;;;13.98;95.25
71770;BME280;66386;52.122;5.420;2023-09-19T07:21:23;100962.81;;;14.06;95.00
71770;BME280;66386;52.122;5.420;2023-09-19T07:23:49;100967.69;;;14.12;94.77
71770;BME280;66386;52.122;5.420;2023-09-19T07:26:18;100984.44;;;14.22;94.51
71770;BME280;66386;52.122;5.420;2023-09-19T07:28:45;100978.16;;;14.26;94.05
71770;BME280;66386;52.122;5.420;2023-09-19T07:31:11;100973.53;;;14.33;93.17
71770;BME280;66386;52.122;5.420;2023-09-19T07:33:40;100981.88;;;14.38;92.77
71770;BME280;66386;52.122;5.420;2023-09-19T07:36:10;100983.41;;;14.42;91.83
71770;BME280;66386;52.122;5.420;2023-09-19T07:38:37;100988.63;;;14.58;92.06
71770;BME280;66386;52.122;5.420;2023-09-19T07:41:03;100986.13;;;14.74;92.07
71770;BME280;66386;52.122;5.420;2023-09-19T07:43:31;100988.91;;;14.87;91.69
71770;BME280;66386;52.122;5.420;2023-09-19T07:46:04;100979.91;;;14.94;90.82
71770;BME280;66386;52.122;5.420;2023-09-19T07:48:33;100989.41;;;15.10;90.63
71770;BME280;66386;52.122;5.420;2023-09-19T07:51:08;100985.84;;;15.28;90.54
71770;BME280;66386;52.122;5.420;2023-09-19T07:53:35;100990.94;;;15.46;89.40
71770;BME280;66386;52.122;5.420;2023-09-19T07:56:06;100987.88;;;15.55;88.54
71770;BME280;66386;52.122;5.420;2023-09-19T07:58:33;100987.16;;;15.67;88.59
71770;BME280;66386;52.122;5.420;2023-09-19T08:01:08;100989.78;;;15.83;87.67
71770;BME280;66386;52.122;5.420;2023-09-19T08:03:36;100987.91;;;15.85;86.74
71770;BME280;66386;52.122;5.420;2023-09-19T08:06:07;100985.22;;;15.87;86.78
71770;BME280;66386;52.122;5.420;2023-09-19T08:08:34;100984.47;;;16.01;85.96
71770;BME280;66386;52.122;5.420;2023-09-19T08:11:05;100991.91;;;16.21;85.29
71770;BME280;66386;52.122;5.420;2023-09-19T08:13:39;100993.88;;;16.32;85.04
71770;BME280;66386;52.122;5.420;2023-09-19T08:16:16;100987.22;;;16.43;85.65
71770;BME280;66386;52.122;5.420;2023-09-19T08:18:47;100993.72;;;16.50;84.08
71770;BME280;66386;52.122;5.420;2023-09-19T08:21:14;100987.03;;;16.31;84.21
71770;BME280;66386;52.122;5.420;2023-09-19T08:23:43;100983.22;;;16.22;83.99
71770;BME280;66386;52.122;5.420;2023-09-19T08:26:11;100974.78;;;16.19;84.90
71770;BME280;66386;52.122;5.420;2023-09-19T08:28:37;100987.13;;;16.30;84.86
71770;BME280;66386;52.122;5.420;2023-09-19T08:31:07;100973.59;;;16.39;83.85
71770;BME280;66386;52.122;5.420;2023-09-19T08:33:36;100982.69;;;16.46;83.33
71770;BME280;66386;52.122;5.420;2023-09-19T08:36:03;100982.03;;;16.57;83.42
71770;BME280;66386;52.122;5.420;2023-09-19T08:38:31;100984.19;;;16.65;83.74
71770;BME280;66386;52.122;5.420;2023-09-19T08:41:00;100977.88;;;16.69;83.74
71770;BME280;66386;52.122;5.420;2023-09-19T08:43:27;100988.91;;;16.72;83.08
71770;BME280;66386;52.122;5.420;2023-09-19T08:46:03;100981.31;;;16.84;83.43
71770;BME280;66386;52.122;5.420;2023-09-19T08:48:34;100976.84;;;16.86;83.03
71770;BME280;66386;52.122;5.420;2023-09-19T08:51:07;100987.47;;;16.97;83.14
71770;BME280;66386;52.122;5.420;2023-09-19T08:56:12;100967.78;;;17.07;82.04
71770;BME280;66386;52.122;5.420;2023-09-19T08:58:49;100982.31;;;17.24;81.31
71770;BME280;66386;52.122;5.420;2023-09-19T09:01:18;100977.41;;;17.47;81.42
71770;BME280;66386;52.122;5.420;2023-09-19T09:03:53;100975.94;;;17.70;80.16
71770;BME280;66386;52.122;5.420;2023-09-19T09:06:21;100971.78;;;17.95;79.76
71770;BME280;66386;52.122;5.420;2023-09-19T09:08:47;100964.41;;;18.14;77.84
71770;BME280;66386;52.122;5.420;2023-09-19T09:11:15;100983.06;;;18.21;76.81
71770;BME280;66386;52.122;5.420;2023-09-19T09:13:43;100981.03;;;18.12;76.83
71770;BME280;66386;52.122;5.420;2023-09-19T09:16:10;100972.63;;;18.08;77.50
71770;BME280;66386;52.122;5.420;2023-09-19T09:18:37;100973.06;;;18.15;76.25
71770;BME280;66386;52.122;5.420;2023-09-19T09:21:04;100976.06;;;18.22;77.29
71770;BME280;66386;52.122;5.420;2023-09-19T09:23:31;100970.78;;;18.36;76.31
71770;BME280;66386;52.122;5.420;2023-09-19T09:25:59;100977.09;;;18.19;75.89
71770;BME280;66386;52.122;5.420;2023-09-19T09:28:30;100965.56;;;17.98;75.19
71770;BME280;66386;52.122;5.420;2023-09-19T09:30:57;100968.56;;;17.77;75.94
71770;BME280;66386;52.122;5.420;2023-09-19T09:33:25;100964.22;;;17.77;76.36
71770;BME280;66386;52.122;5.420;2023-09-19T09:35:57;100960.16;;;17.73;75.73
71770;BME280;66386;52.122;5.420;2023-09-19T09:38:27;100974.00;;;17.87;76.53
71770;BME280;66386;52.122;5.420;2023-09-19T09:41:00;100960.97;;;18.14;75.85
71770;BME280;66386;52.122;5.420;2023-09-19T09:43:35;100954.44;;;18.21;75.88
71770;BME280;66386;52.122;5.420;2023-09-19T09:46:09;100954.75;;;18.42;74.59
71770;BME280;66386;52.122;5.420;2023-09-19T09:49:00;100948.28;;;18.48;74.38
71770;BME280;66386;52.122;5.420;2023-09-19T09:51:49;100946.38;;;18.76;73.87
71770;BME280;66386;52.122;5.420;2023-09-19T09:54:25;100952.31;;;18.78;72.90
71770;BME280;66386;52.122;5.420;2023-09-19T09:57:01;100950.75;;;18.75;72.87
71770;BME280;66386;52.122;5.420;2023-09-19T09:59:47;100952.03;;;18.57;73.37
71770;BME280;66386;52.122;5.420;2023-09-19T10:02:14;100955.28;;;18.60;73.09
71770;BME280;66386;52.122;5.420;2023-09-19T10:04:47;100942.75;;;18.53;73.78
71770;BME280;66386;52.122;5.420;2023-09-19T10:07:36;100954.75;;;18.42;74.08
71770;BME280;66386;52.122;5.420;2023-09-19T10:10:10;100946.00;;;18.30;72.25
71770;BME280;66386;52.122;5.420;2023-09-19T10:12:44;100960.91;;;18.28;71.83
71770;BME280;66386;52.122;5.420;2023-09-19T10:15:17;100955.56;;;18.17;73.26
71770;BME280;66386;52.122;5.420;2023-09-19T10:17:47;100961.59;;;18.18;74.72
71770;BME280;66386;52.122;5.420;2023-09-19T10:20:16;100955.88;;;18.12;73.38
71770;BME280;66386;52.122;5.420;2023-09-19T10:22:50;100959.84;;;18.05;74.74
71770;BME280;66386;52.122;5.420;2023-09-19T10:25:29;100961.16;;;17.98;72.96
71770;BME280;66386;52.122;5.420;2023-09-19T10:28:02;100943.28;;;18.06;72.99
71770;BME280;66386;52.122;5.420;2023-09-19T10:30:31;100937.38;;;18.30;73.04
71770;BME280;66386;52.122;5.420;2023-09-19T10:33:02;100935.59;;;18.56;72.68
71770;BME280;66386;52.122;5.420;2023-09-19T10:35:29;100937.00;;;18.73;72.86
71770;BME280;66386;52.122;5.420;2023-09-19T10:38:00;100927.50;;;18.85;72.22
71770;BME280;66386;52.122;5.420;2023-09-19T10:40:27;100927.38;;;18.99;71.93
71770;BME280;66386;52.122;5.420;2023-09-19T10:43:02;100917.22;;;19.21;71.07
71770;BME280;66386;52.122;5.420;2023-09-19T10:45:33;100924.69;;;19.25;70.98
71770;BME280;66386;52.122;5.420;2023-09-19T10:48:02;100919.09;;;19.18;71.21
71770;BME280;66386;52.122;5.420;2023-09-19T10:50:32;100911.78;;;19.24;71.26
71770;BME280;66386;52.122;5.420;2023-09-19T10:53:02;100913.88;;;19.18;70.21
71770;BME280;66386;52.122;5.420;2023-09-19T10:55:34;100906.25;;;19.04;70.78
71770;BME280;66386;52.122;5.420;2023-09-19T10:58:02;100898.13;;;18.96;70.35
71770;BME280;66386;52.122;5.420;2023-09-19T11:00:54;100903.53;;;19.06;71.80
71770;BME280;66386;52.122;5.420;2023-09-19T11:03:22;100905.53;;;19.26;71.04
71770;BME280;66386;52.122;5.420;2023-09-19T11:06:11;100903.84;;;19.25;69.96
71770;BME280;66386;52.122;5.420;2023-09-19T11:08:56;100895.03;;;19.39;69.95
71770;BME280;66386;52.122;5.420;2023-09-19T11:11:47;100891.78;;;19.60;70.58
71770;BME280;66386;52.122;5.420;2023-09-19T11:30:38;100902.22;;;19.95;68.29
71770;BME280;66386;52.122;5.420;2023-09-19T11:33:22;100897.25;;;19.68;67.47
71770;BME280;66386;52.122;5.420;2023-09-19T11:46:30;100868.91;;;19.04;68.40
71770;BME280;66386;52.122;5.420;2023-09-19T11:49:08;100875.50;;;18.96;69.28
71770;BME280;66386;52.122;5.420;2023-09-19T11:51:42;100869.09;;;19.13;69.89
71770;BME280;66386;52.122;5.420;2023-09-19T11:54:11;100880.44;;;19.36;69.15
71770;BME280;66386;52.122;5.420;2023-09-19T11:56:45;100864.63;;;19.51;67.95
71770;BME280;66386;52.122;5.420;2023-09-19T11:59:26;100852.03;;;19.45;66.73
71770;BME280;66386;52.122;5.420;2023-09-19T12:01:55;100860.06;;;19.30;67.28
71770;BME280;66386;52.122;5.420;2023-09-19T12:04:39;100874.38;;;19.25;67.86
71770;BME280;66386;52.122;5.420;2023-09-19T12:07:10;100874.69;;;19.20;67.70
71770;BME280;66386;52.122;5.420;2023-09-19T12:09:43;100880.69;;;19.09;67.94
71770;BME280;66386;52.122;5.420;2023-09-19T12:12:23;100895.16;;;19.13;69.32
71770;BME280;66386;52.122;5.420;2023-09-19T12:14:54;100882.19;;;19.25;68.83
71770;BME280;66386;52.122;5.420;2023-09-19T12:17:23;100875.47;;;19.33;67.99
71770;BME280;66386;52.122;5.420;2023-09-19T12:19:51;100877.34;;;19.31;67.95
71770;BME280;66386;52.122;5.420;2023-09-19T12:22:18;100878.31;;;19.30;67.43
71770;BME280;66386;52.122;5.420;2023-09-19T12:24:47;100878.38;;;19.29;66.52
71770;BME280;66386;52.122;5.420;2023-09-19T12:27:15;100876.97;;;19.25;67.83
71770;BME280;66386;52.122;5.420;2023-09-19T12:29:48;100873.69;;;19.10;68.30
71770;BME280;66386;52.122;5.420;2023-09-19T12:32:15;100877.06;;;18.99;68.22
71770;BME280;66386;52.122;5.420;2023-09-19T12:34:52;100876.56;;;18.94;68.91
71770;BME280;66386;52.122;5.420;2023-09-19T12:37:20;100873.25;;;18.92;68.74
71770;BME280;66386;52.122;5.420;2023-09-19T12:39:51;100867.69;;;18.96;68.60
71770;BME280;66386;52.122;5.420;2023-09-19T12:42:26;100872.69;;;18.99;69.03
71770;BME280;66386;52.122;5.420;2023-09-19T12:45:01;100872.53;;;18.90;68.83
71770;BME280;66386;52.122;5.420;2023-09-19T12:47:28;100872.31;;;18.80;69.62
71770;BME280;66386;52.122;5.420;2023-09-19T12:50:13;100877.34;;;18.70;70.02
71770;BME280;66386;52.122;5.420;2023-09-19T12:52:52;100877.28;;;18.59;70.69
71770;BME280;66386;52.122;5.420;2023-09-19T12:55:27;100881.63;;;18.58;71.55
71770;BME280;66386;52.122;5.420;2023-09-19T12:57:59;100884.88;;;18.62;71.16
71770;BME280;66386;52.122;5.420;2023-09-19T13:00:34;100882.66;;;18.69;71.33
71770;BME280;66386;52.122;5.420;2023-09-19T13:03:14;100871.97;;;18.84;70.73
71770;BME280;66386;52.122;5.420;2023-09-19T13:05:53;100878.97;;;18.97;70.55
71770;BME280;66386;52.122;5.420;2023-09-19T13:08:24;100888.00;;;19.04;70.55
71770;BME280;66386;52.122;5.420;2023-09-19T13:11:06;100878.78;;;19.11;69.84
71770;BME280;66386;52.122;5.420;2023-09-19T13:13:34;100868.47;;;19.10;70.43
71770;BME280;66386;52.122;5.420;2023-09-19T13:16:03;100869.78;;;19.04;69.99
71770;BME280;66386;52.122;5.420;2023-09-19T13:21:14;100883.56;;;18.80;70.49
71770;BME280;66386;52.122;5.420;2023-09-19T13:24:17;100886.81;;;18.71;70.86
71770;BME280;66386;52.122;5.420;2023-09-19T13:26:43;100904.13;;;18.59;72.31
71770;BME280;66386;52.122;5.420;2023-09-19T13:29:09;100891.78;;;18.50;72.05
71770;BME280;66386;52.122;5.420;2023-09-19T13:31:36;100892.91;;;18.46;72.40
71770;BME280;66386;52.122;5.420;2023-09-19T13:34:07;100876.31;;;18.60;72.48
71770;BME280;66386;52.122;5.420;2023-09-19T13:36:34;100874.81;;;18.81;72.02
71770;BME280;66386;52.122;5.420;2023-09-19T13:39:00;100882.28;;;18.99;71.08
71770;BME280;66386;52.122;5.420;2023-09-19T13:41:27;100878.19;;;19.08;71.47
71770;BME280;66386;52.122;5.420;2023-09-19T13:43:55;100860.13;;;19.17;70.59
71770;BME280;66386;52.122;5.420;2023-09-19T13:46:23;100867.97;;;19.29;70.29